Buoy 56916

sailwx.info

Track history (hours):
 
Tides and Currents Weather Stations Pressure Air Temp Water Temp Dewpoint Dewpoint Depression Visibility Wind Speed Wind Dir Waves Ship Positions

Drifting buoy 56916

Last reported at 2017-Oct-19 10:00 UTC. Time now 2017-Oct-19 13:00 UTC.
Position S 46°48' W 177°17'.

Barometer 1021.4 mb
Water temperature 11.8 ° C

Date/timePositionNaut miles runAvg speedWind from/ knotsBaromVisibWave heightAir tempDewpointWater temp
2017-Oct-19 10:00S 46°48' W 177°17'0 0.4 1021.4 11.8
2017-Oct-19 09:00S 46°48' W 177°18'1 0.7 1021.4 11.8
2017-Oct-19 07:00S 46°47' W 177°20'2 1.0 1021.1 11.8
2017-Oct-19 05:00S 46°47' W 177°23'2 1.7 1020.8 11.8
2017-Oct-19 04:00S 46°46' W 177°25'0 0.0 1021.0 11.8
2017-Oct-19 03:00S 46°46' W 177°25'0 0.0 1021.2 11.7
2017-Oct-19 02:00S 46°46' W 177°25'3 0.6 1021.7 11.7
2017-Oct-18 22:00S 46°47' W 177°28'1 0.6 1022.9 11.8
2017-Oct-18 21:00S 46°46' W 177°28'1 0.8 1022.9 11.8
2017-Oct-18 20:00S 46°46' W 177°29'1 0.8 1022.9 11.8
2017-Oct-18 19:00S 46°46' W 177°28'0 0.0 1023.0 11.8
2017-Oct-18 18:00S 46°46' W 177°28'2 1.7 1023.3 11.8
2017-Oct-18 17:00S 46°47' W 177°31'1 0.7 1023.0 11.8
2017-Oct-18 16:00S 46°47' W 177°31'1 1.4 1022.7 11.8
2017-Oct-18 15:00S 46°48' W 177°33'2 2.1 1022.6 11.7
2017-Oct-18 14:00S 46°49' W 177°36'0 0.0 1022.5 11.7
2017-Oct-18 11:00S 46°49' W 177°36'0 0.0 1021.7 11.6
2017-Oct-18 10:00S 46°49' W 177°36'0 0.0 1021.2 11.6
2017-Oct-18 09:00S 46°49' W 177°36'1 1.0 1020.8 11.6
2017-Oct-18 08:00S 46°49' W 177°37'1 0.4 1019.9 11.6
2017-Oct-18 06:00S 46°50' W 177°38'0 0.0 1017.9 11.6
2017-Oct-18 05:00S 46°50' W 177°38'1 1.2 1016.9 11.6
2017-Oct-18 04:00S 46°50' W 177°36'2 2.2 1016.0 11.6
2017-Oct-18 03:00S 46°52' W 177°38'1 0.6 1014.8 11.7
2017-Oct-18 02:00S 46°51' W 177°38'5 1.0 1014.0 11.7
2017-Oct-17 21:00S 46°55' W 177°41'1 0.6 1010.0 11.7
2017-Oct-17 20:00S 46°56' W 177°41'1 1.0 1009.1 11.6
2017-Oct-17 19:00S 46°56' W 177°43'1 1.4 1008.4 11.6
2017-Oct-17 18:00S 46°57' W 177°44'0 0.4 1007.6 11.6
2017-Oct-17 17:00S 46°57' W 177°45'1 0.6 1007.0 11.5
2017-Oct-17 16:00S 46°58' W 177°45'2 1.6 1006.6 11.5
2017-Oct-17 15:00S 46°58' W 177°47'2 2.4 1006.1 11.4
2017-Oct-17 14:00S 46°59' W 177°50'0 0.0 1006.0 11.4
2017-Oct-17 12:00S 46°59' W 177°50'0 0.0 1006.8 11.5
2017-Oct-17 11:00S 46°59' W 177°50'0 0.0 1006.4 11.7
2017-Oct-17 10:00S 46°59' W 177°50'3 3.4 1006.1 11.9
2017-Oct-17 09:00S 47°02' W 177°53'0 0.0 1006.1 12.0
2017-Oct-17 08:00S 47°02' W 177°53'1 0.7 1006.2 12.1
2017-Oct-17 06:00S 47°03' W 177°55'1 1.2 1005.4 12.2
2017-Oct-17 05:00S 47°03' W 177°56'2 2.4 1005.8 12.2
2017-Oct-17 04:00S 47°05' W 177°59'5 4.8 1005.6 12.2
2017-Oct-17 03:00S 47°03' W 178°05'5 4.5 1005.5 12.3
2017-Oct-17 02:00S 47°04' W 177°59'6 1.5 1006.0 12.3
2017-Oct-16 22:00S 47°03' W 178°08'1 1.2 1007.6 12.3
2017-Oct-16 21:00S 47°03' W 178°06'2 1.6 1007.7 12.2
2017-Oct-16 20:00S 47°03' W 178°08'0 0.0 1008.1 12.2
2017-Oct-16 19:00S 47°03' W 178°08'1 1.2 1008.1 12.3
2017-Oct-16 18:00S 47°03' W 178°10'1 0.6 1008.0 12.3
2017-Oct-16 16:00S 47°03' W 178°12'2 2.0 1008.2 12.3
2017-Oct-16 15:00S 47°03' W 178°15'2 1.1 1008.4 12.4
2017-Oct-16 13:00S 47°04' W 178°18'2 1.0 1009.0 12.4
2017-Oct-16 11:00S 47°04' W 178°21'1 0.8 1009.5 12.4
2017-Oct-16 10:00S 47°04' W 178°22'1 1.2 1009.7 12.4
2017-Oct-16 09:00S 47°04' W 178°24'3 3.5 1009.7 12.4
2017-Oct-16 08:00S 47°02' W 178°29'0 0.0 1009.3 12.4
2017-Oct-16 07:00S 47°02' W 178°29'0 0.4 1009.1 12.4
2017-Oct-16 06:00S 47°02' W 178°29'1 0.8 1008.5 12.4
2017-Oct-16 05:00S 47°02' W 178°31'1 0.8 1007.9 12.4
2017-Oct-16 04:00S 47°02' W 178°32'1 1.2 1007.6 12.4
2017-Oct-16 03:00S 47°02' W 178°34'8 1.6 1007.1 12.4
2017-Oct-15 22:00S 47°02' W 178°45'0 0.0 1005.5 12.2
2017-Oct-15 20:00S 47°02' W 178°45'1 0.6 1004.4 12.3
2017-Oct-15 19:00S 47°02' W 178°45'1111.1 1003.6 12.4
2017-Oct-15 18:00S 46°58' W 179°00'0 0.0 1002.7 12.1
2017-Oct-15 17:00S 46°58' W 179°00'0 0.0 1001.3 11.6
2017-Oct-15 14:00S 46°58' W 179°00'0 0.0 1001.0 11.2
2017-Oct-15 13:00S 46°58' W 179°00'5 2.7 1001.5 11.2
2017-Oct-15 11:00S 46°55' W 179°07'1 0.7 1002.7 11.0
2017-Oct-15 10:00S 46°55' W 179°06'1 1.3 1003.7 10.8
2017-Oct-15 09:00S 46°54' W 179°07'2 2.1 1004.3 10.7
2017-Oct-15 08:00S 46°53' W 179°10'2 1.1 1004.6 10.7
2017-Oct-15 06:00S 46°52' W 179°11'1 1.4 1004.6 10.7
2017-Oct-15 05:00S 46°51' W 179°13'2 1.7 1004.7 10.5
2017-Oct-15 04:00S 46°50' W 179°16'0 0.0 1004.7 10.5
2017-Oct-15 03:00S 46°50' W 179°16'4 0.6 1004.8 10.5
2017-Oct-14 21:00S 46°49' W 179°21'1 0.7 1004.4 10.6
2017-Oct-14 20:00S 46°49' W 179°22'0 0.4 1004.3 10.6
2017-Oct-14 19:00S 46°49' W 179°22'1 0.7 1004.2 10.6
2017-Oct-14 18:00S 46°48' W 179°23'0 0.0 1004.5 10.6
2017-Oct-14 17:00S 46°48' W 179°23'1 1.0 1004.5 10.7
2017-Oct-14 16:00S 46°47' W 179°24'1 1.4 1004.9 10.7
2017-Oct-14 15:00S 46°47' W 179°26'5 1.2 1005.4 10.8
2017-Oct-14 11:00S 46°44' W 179°32'0 0.0 1008.4 10.7
2017-Oct-14 10:00S 46°44' W 179°32'1 0.7 1008.6 10.7
2017-Oct-14 09:00S 46°44' W 179°32'1 0.7 1008.8 10.8
2017-Oct-14 08:00S 46°44' W 179°33'3 1.4 1009.0 10.9
2017-Oct-14 06:00S 46°43' W 179°37'0 0.0 1009.0 11.1
2017-Oct-14 05:00S 46°43' W 179°37'1 1.4 1008.8 11.3
2017-Oct-14 04:00S 46°43' W 179°38'3 3.1 1008.7 11.4
2017-Oct-14 03:00S 46°41' W 179°43'0 0.1 1008.6 11.3
2017-Oct-13 22:00S 46°41' W 179°42'0 0.0 1008.3 10.4
2017-Oct-13 21:00S 46°41' W 179°42'1 0.8 1007.9 10.3
2017-Oct-13 20:00S 46°41' W 179°43'0 0.4 1007.6 10.3
2017-Oct-13 19:00S 46°41' W 179°44'1 0.8 1007.1 10.3
2017-Oct-13 18:00S 46°41' W 179°45'0 0.4 1006.8 10.3
2017-Oct-13 17:00S 46°41' W 179°46'1 1.4 1006.4 10.3
2017-Oct-13 16:00S 46°41' W 179°47'0 0.0 1006.0 10.3
2017-Oct-13 15:00S 46°41' W 179°47'2 1.7 1005.9 10.3
2017-Oct-13 14:00S 46°40' W 179°49'1 1.5 1005.9 10.3
2017-Oct-13 13:00S 46°38' W 179°50'1 0.7 1005.8 10.3
2017-Oct-13 11:00S 46°37' W 179°52'0 0.0 1006.7 10.3
2017-Oct-13 10:00S 46°37' W 179°52'1 1.3 1007.1 10.3
2017-Oct-13 09:00S 46°36' W 179°52'1 0.6 1007.1 10.3
2017-Oct-13 07:00S 46°35' W 179°53'0 0.0 1008.0 10.3
2017-Oct-13 06:00S 46°35' W 179°53'1 0.6 1008.0 10.3
2017-Oct-13 05:00S 46°34' W 179°53'1 1.4 1008.0 10.3
2017-Oct-13 04:00S 46°34' W 179°55'0 0.4 1008.4 10.4
2017-Oct-13 03:00S 46°34' W 179°54'3 0.6 1008.5 10.4
2017-Oct-12 21:00S 46°31' W 179°58'1 0.8 1010.3 10.1
2017-Oct-12 20:00S 46°31' W 179°59'1 1.0 1010.5 10.1
2017-Oct-12 19:00S 46°31' W 180°00'0 0.4 1009.9 10.2
2017-Oct-12 18:00S 46°31' W 179°59'1 0.5 1009.9 10.2
2017-Oct-12 16:00S 46°30' E 179°59'1 0.4 1009.4 10.2
2017-Oct-12 14:00S 46°29' E 179°59'2 0.3 1009.4 10.2
2017-Oct-12 07:00S 46°32' E 179°58'1 1.5 1007.1 10.1
2017-Oct-12 06:00S 46°33' E 179°57'0 0.0 1006.3 10.1
2017-Oct-12 05:00S 46°33' E 179°57'3 3.1 1006.0 10.2
2017-Oct-12 04:00S 46°34' E 179°53'0 0.0 1005.7 10.2
2017-Oct-11 22:00S 46°34' E 179°53'1 1.2 1004.3 10.1
2017-Oct-11 21:00S 46°34' E 179°51'1 0.6 1003.9 10.0
2017-Oct-11 20:00S 46°35' E 179°51'0 0.0 1003.2 10.0
2017-Oct-11 19:00S 46°35' E 179°51'0 0.0 1002.7 10.0
2017-Oct-11 18:00S 46°35' E 179°51'1 1.2 1001.7 10.0
2017-Oct-11 17:00S 46°36' E 179°51'0 0.2 1000.5 10.0
2017-Oct-11 15:00S 46°36' E 179°50'3 0.7 999.1 10.1
2017-Oct-11 11:00S 46°38' E 179°48'1 0.7 997.0 10.2
2017-Oct-11 09:00S 46°39' E 179°46'1 0.8 996.5 10.2
2017-Oct-11 08:00S 46°39' E 179°45'0 0.0 996.3 10.2
2017-Oct-11 07:00S 46°39' E 179°45'0 0.4 995.8 10.2
2017-Oct-11 06:00S 46°39' E 179°44'0 0.0 995.4 10.2
2017-Oct-11 05:00S 46°39' E 179°44'1 1.4 995.3 10.2
2017-Oct-11 04:00S 46°38' E 179°43'2 0.9 995.3 10.2
2017-Oct-11 02:00S 46°37' E 179°43'2 0.4 995.6 10.2
2017-Oct-10 22:00S 46°35' E 179°41'1 0.4 996.5 10.1
2017-Oct-10 20:00S 46°35' E 179°41'0 0.0 996.5 10.1
2017-Oct-10 19:00S 46°35' E 179°41'1 0.7 996.6 10.1
2017-Oct-10 18:00S 46°34' E 179°40'2 0.7 996.9 10.0
2017-Oct-10 15:00S 46°32' E 179°39'4 3.7 997.3 10.0
2017-Oct-10 14:00S 46°29' E 179°40'0 0.0 997.8 10.0
2017-Oct-10 11:00S 46°29' E 179°40'1 0.6 1001.6 10.0
2017-Oct-10 10:00S 46°28' E 179°40'2 0.8 1003.1 10.1
2017-Oct-10 07:00S 46°27' E 179°43'0 0.0 1007.5 10.1
2017-Oct-10 06:00S 46°27' E 179°43'1 1.3 1008.6 10.1
2017-Oct-10 05:00S 46°26' E 179°44'1 0.6 1009.5 10.1
2017-Oct-10 04:00S 46°26' E 179°44'1 1.2 1010.2 10.1
2017-Oct-10 03:00S 46°25' E 179°44'0 0.0 1011.1 10.1
2017-Oct-10 02:00S 46°25' E 179°44'3 0.8 1012.3 10.1
2017-Oct-09 22:00S 46°22' E 179°44'1 0.8 1015.6 10.1
2017-Oct-09 21:00S 46°22' E 179°46'1 0.6 1016.4 10.2
2017-Oct-09 19:00S 46°21' E 179°46'1 0.6 1017.3 10.2
2017-Oct-09 18:00S 46°20' E 179°46'1 0.6 1017.9 10.2
2017-Oct-09 17:00S 46°20' E 179°46'1 1.0 1018.2 10.2
2017-Oct-09 16:00S 46°19' E 179°47'1 1.2 1018.7 10.2
2017-Oct-09 15:00S 46°18' E 179°47'1 1.5 1019.2 10.2
2017-Oct-09 14:00S 46°17' E 179°48'0 0.1 1019.8 10.2
2017-Oct-09 11:00S 46°17' E 179°49'   1021.4 10.2
Track history (hours):
 
Tides and Currents Weather Stations Pressure Air Temp Water Temp Dewpoint Dewpoint Depression Visibility Wind Speed Wind Dir Waves Ship Positions

Drifting buoy 56916

Last reported at 2017-Oct-19 10:00 UTC. Time now 2017-Oct-19 13:00 UTC.
Position S 46°48' W 177°17'.

Barometer 1021.4 mb
Water temperature 11.8 ° C

Date/timePositionNaut miles runAvg speedWind from/ knotsBaromVisibWave heightAir tempDewpointWater temp
2017-Oct-19 10:00S 46°48' W 177°17'0 0.4 1021.4 11.8
2017-Oct-19 09:00S 46°48' W 177°18'1 0.7 1021.4 11.8
2017-Oct-19 07:00S 46°47' W 177°20'2 1.0 1021.1 11.8
2017-Oct-19 05:00S 46°47' W 177°23'2 1.7 1020.8 11.8
2017-Oct-19 04:00S 46°46' W 177°25'0 0.0 1021.0 11.8
2017-Oct-19 03:00S 46°46' W 177°25'0 0.0 1021.2 11.7
2017-Oct-19 02:00S 46°46' W 177°25'3 0.6 1021.7 11.7
2017-Oct-18 22:00S 46°47' W 177°28'1 0.6 1022.9 11.8
2017-Oct-18 21:00S 46°46' W 177°28'1 0.8 1022.9 11.8
2017-Oct-18 20:00S 46°46' W 177°29'1 0.8 1022.9 11.8
2017-Oct-18 19:00S 46°46' W 177°28'0 0.0 1023.0 11.8
2017-Oct-18 18:00S 46°46' W 177°28'2 1.7 1023.3 11.8
2017-Oct-18 17:00S 46°47' W 177°31'1 0.7 1023.0 11.8
2017-Oct-18 16:00S 46°47' W 177°31'1 1.4 1022.7 11.8
2017-Oct-18 15:00S 46°48' W 177°33'2 2.1 1022.6 11.7
2017-Oct-18 14:00S 46°49' W 177°36'0 0.0 1022.5 11.7
2017-Oct-18 11:00S 46°49' W 177°36'0 0.0 1021.7 11.6
2017-Oct-18 10:00S 46°49' W 177°36'0 0.0 1021.2 11.6
2017-Oct-18 09:00S 46°49' W 177°36'1 1.0 1020.8 11.6
2017-Oct-18 08:00S 46°49' W 177°37'1 0.4 1019.9 11.6
2017-Oct-18 06:00S 46°50' W 177°38'0 0.0 1017.9 11.6
2017-Oct-18 05:00S 46°50' W 177°38'1 1.2 1016.9 11.6
2017-Oct-18 04:00S 46°50' W 177°36'2 2.2 1016.0 11.6
2017-Oct-18 03:00S 46°52' W 177°38'1 0.6 1014.8 11.7
2017-Oct-18 02:00S 46°51' W 177°38'5 1.0 1014.0 11.7
2017-Oct-17 21:00S 46°55' W 177°41'1 0.6 1010.0 11.7
2017-Oct-17 20:00S 46°56' W 177°41'1 1.0 1009.1 11.6
2017-Oct-17 19:00S 46°56' W 177°43'1 1.4 1008.4 11.6
2017-Oct-17 18:00S 46°57' W 177°44'0 0.4 1007.6 11.6
2017-Oct-17 17:00S 46°57' W 177°45'1 0.6 1007.0 11.5
2017-Oct-17 16:00S 46°58' W 177°45'2 1.6 1006.6 11.5
2017-Oct-17 15:00S 46°58' W 177°47'2 2.4 1006.1 11.4
2017-Oct-17 14:00S 46°59' W 177°50'0 0.0 1006.0 11.4
2017-Oct-17 12:00S 46°59' W 177°50'0 0.0 1006.8 11.5
2017-Oct-17 11:00S 46°59' W 177°50'0 0.0 1006.4 11.7
2017-Oct-17 10:00S 46°59' W 177°50'3 3.4 1006.1 11.9
2017-Oct-17 09:00S 47°02' W 177°53'0 0.0 1006.1 12.0
2017-Oct-17 08:00S 47°02' W 177°53'1 0.7 1006.2 12.1
2017-Oct-17 06:00S 47°03' W 177°55'1 1.2 1005.4 12.2
2017-Oct-17 05:00S 47°03' W 177°56'2 2.4 1005.8 12.2
2017-Oct-17 04:00S 47°05' W 177°59'5 4.8 1005.6 12.2
2017-Oct-17 03:00S 47°03' W 178°05'5 4.5 1005.5 12.3
2017-Oct-17 02:00S 47°04' W 177°59'6 1.5 1006.0 12.3
2017-Oct-16 22:00S 47°03' W 178°08'1 1.2 1007.6 12.3
2017-Oct-16 21:00S 47°03' W 178°06'2 1.6 1007.7 12.2
2017-Oct-16 20:00S 47°03' W 178°08'0 0.0 1008.1 12.2
2017-Oct-16 19:00S 47°03' W 178°08'1 1.2 1008.1 12.3
2017-Oct-16 18:00S 47°03' W 178°10'1 0.6 1008.0 12.3
2017-Oct-16 16:00S 47°03' W 178°12'2 2.0 1008.2 12.3
2017-Oct-16 15:00S 47°03' W 178°15'2 1.1 1008.4 12.4
2017-Oct-16 13:00S 47°04' W 178°18'2 1.0 1009.0 12.4
2017-Oct-16 11:00S 47°04' W 178°21'1 0.8 1009.5 12.4
2017-Oct-16 10:00S 47°04' W 178°22'1 1.2 1009.7 12.4
2017-Oct-16 09:00S 47°04' W 178°24'3 3.5 1009.7 12.4
2017-Oct-16 08:00S 47°02' W 178°29'0 0.0 1009.3 12.4
2017-Oct-16 07:00S 47°02' W 178°29'0 0.4 1009.1 12.4
2017-Oct-16 06:00S 47°02' W 178°29'1 0.8 1008.5 12.4
2017-Oct-16 05:00S 47°02' W 178°31'1 0.8 1007.9 12.4
2017-Oct-16 04:00S 47°02' W 178°32'1 1.2 1007.6 12.4
2017-Oct-16 03:00S 47°02' W 178°34'8 1.6 1007.1 12.4
2017-Oct-15 22:00S 47°02' W 178°45'0 0.0 1005.5 12.2
2017-Oct-15 20:00S 47°02' W 178°45'1 0.6 1004.4 12.3
2017-Oct-15 19:00S 47°02' W 178°45'1111.1 1003.6 12.4
2017-Oct-15 18:00S 46°58' W 179°00'0 0.0 1002.7 12.1
2017-Oct-15 17:00S 46°58' W 179°00'0 0.0 1001.3 11.6
2017-Oct-15 14:00S 46°58' W 179°00'0 0.0 1001.0 11.2
2017-Oct-15 13:00S 46°58' W 179°00'5 2.7 1001.5 11.2
2017-Oct-15 11:00S 46°55' W 179°07'1 0.7 1002.7 11.0
2017-Oct-15 10:00S 46°55' W 179°06'1 1.3 1003.7 10.8
2017-Oct-15 09:00S 46°54' W 179°07'2 2.1 1004.3 10.7
2017-Oct-15 08:00S 46°53' W 179°10'2 1.1 1004.6 10.7
2017-Oct-15 06:00S 46°52' W 179°11'1 1.4 1004.6 10.7
2017-Oct-15 05:00S 46°51' W 179°13'2 1.7 1004.7 10.5
2017-Oct-15 04:00S 46°50' W 179°16'0 0.0 1004.7 10.5
2017-Oct-15 03:00S 46°50' W 179°16'4 0.6 1004.8 10.5
2017-Oct-14 21:00S 46°49' W 179°21'1 0.7 1004.4 10.6
2017-Oct-14 20:00S 46°49' W 179°22'0 0.4 1004.3 10.6
2017-Oct-14 19:00S 46°49' W 179°22'1 0.7 1004.2 10.6
2017-Oct-14 18:00S 46°48' W 179°23'0 0.0 1004.5 10.6
2017-Oct-14 17:00S 46°48' W 179°23'1 1.0 1004.5 10.7
2017-Oct-14 16:00S 46°47' W 179°24'1 1.4 1004.9 10.7
2017-Oct-14 15:00S 46°47' W 179°26'5 1.2 1005.4 10.8
2017-Oct-14 11:00S 46°44' W 179°32'0 0.0 1008.4 10.7
2017-Oct-14 10:00S 46°44' W 179°32'1 0.7 1008.6 10.7
2017-Oct-14 09:00S 46°44' W 179°32'1 0.7 1008.8 10.8
2017-Oct-14 08:00S 46°44' W 179°33'3 1.4 1009.0 10.9
2017-Oct-14 06:00S 46°43' W 179°37'0 0.0 1009.0 11.1
2017-Oct-14 05:00S 46°43' W 179°37'1 1.4 1008.8 11.3
2017-Oct-14 04:00S 46°43' W 179°38'3 3.1 1008.7 11.4
2017-Oct-14 03:00S 46°41' W 179°43'0 0.1 1008.6 11.3
2017-Oct-13 22:00S 46°41' W 179°42'0 0.0 1008.3 10.4
2017-Oct-13 21:00S 46°41' W 179°42'1 0.8 1007.9 10.3
2017-Oct-13 20:00S 46°41' W 179°43'0 0.4 1007.6 10.3
2017-Oct-13 19:00S 46°41' W 179°44'1 0.8 1007.1 10.3
2017-Oct-13 18:00S 46°41' W 179°45'0 0.4 1006.8 10.3
2017-Oct-13 17:00S 46°41' W 179°46'1 1.4 1006.4 10.3
2017-Oct-13 16:00S 46°41' W 179°47'0 0.0 1006.0 10.3
2017-Oct-13 15:00S 46°41' W 179°47'2 1.7 1005.9 10.3
2017-Oct-13 14:00S 46°40' W 179°49'1 1.5 1005.9 10.3
2017-Oct-13 13:00S 46°38' W 179°50'1 0.7 1005.8 10.3
2017-Oct-13 11:00S 46°37' W 179°52'0 0.0 1006.7 10.3
2017-Oct-13 10:00S 46°37' W 179°52'1 1.3 1007.1 10.3
2017-Oct-13 09:00S 46°36' W 179°52'1 0.6 1007.1 10.3
2017-Oct-13 07:00S 46°35' W 179°53'0 0.0 1008.0 10.3
2017-Oct-13 06:00S 46°35' W 179°53'1 0.6 1008.0 10.3
2017-Oct-13 05:00S 46°34' W 179°53'1 1.4 1008.0 10.3
2017-Oct-13 04:00S 46°34' W 179°55'0 0.4 1008.4 10.4
2017-Oct-13 03:00S 46°34' W 179°54'3 0.6 1008.5 10.4
2017-Oct-12 21:00S 46°31' W 179°58'1 0.8 1010.3 10.1
2017-Oct-12 20:00S 46°31' W 179°59'1 1.0 1010.5 10.1
2017-Oct-12 19:00S 46°31' W 180°00'0 0.4 1009.9 10.2
2017-Oct-12 18:00S 46°31' W 179°59'1 0.5 1009.9 10.2
2017-Oct-12 16:00S 46°30' E 179°59'1 0.4 1009.4 10.2
2017-Oct-12 14:00S 46°29' E 179°59'2 0.3 1009.4 10.2
2017-Oct-12 07:00S 46°32' E 179°58'1 1.5 1007.1 10.1
2017-Oct-12 06:00S 46°33' E 179°57'0 0.0 1006.3 10.1
2017-Oct-12 05:00S 46°33' E 179°57'3 3.1 1006.0 10.2
2017-Oct-12 04:00S 46°34' E 179°53'0 0.0 1005.7 10.2
2017-Oct-11 22:00S 46°34' E 179°53'1 1.2 1004.3 10.1
2017-Oct-11 21:00S 46°34' E 179°51'1 0.6 1003.9 10.0
2017-Oct-11 20:00S 46°35' E 179°51'0 0.0 1003.2 10.0
2017-Oct-11 19:00S 46°35' E 179°51'0 0.0 1002.7 10.0
2017-Oct-11 18:00S 46°35' E 179°51'1 1.2 1001.7 10.0
2017-Oct-11 17:00S 46°36' E 179°51'0 0.2 1000.5 10.0
2017-Oct-11 15:00S 46°36' E 179°50'3 0.7 999.1 10.1
2017-Oct-11 11:00S 46°38' E 179°48'1 0.7 997.0 10.2
2017-Oct-11 09:00S 46°39' E 179°46'1 0.8 996.5 10.2
2017-Oct-11 08:00S 46°39' E 179°45'0 0.0 996.3 10.2
2017-Oct-11 07:00S 46°39' E 179°45'0 0.4 995.8 10.2
2017-Oct-11 06:00S 46°39' E 179°44'0 0.0 995.4 10.2
2017-Oct-11 05:00S 46°39' E 179°44'1 1.4 995.3 10.2
2017-Oct-11 04:00S 46°38' E 179°43'2 0.9 995.3 10.2
2017-Oct-11 02:00S 46°37' E 179°43'2 0.4 995.6 10.2
2017-Oct-10 22:00S 46°35' E 179°41'1 0.4 996.5 10.1
2017-Oct-10 20:00S 46°35' E 179°41'0 0.0 996.5 10.1
2017-Oct-10 19:00S 46°35' E 179°41'1 0.7 996.6 10.1
2017-Oct-10 18:00S 46°34' E 179°40'2 0.7 996.9 10.0
2017-Oct-10 15:00S 46°32' E 179°39'4 3.7 997.3 10.0
2017-Oct-10 14:00S 46°29' E 179°40'0 0.0 997.8 10.0
2017-Oct-10 11:00S 46°29' E 179°40'1 0.6 1001.6 10.0
2017-Oct-10 10:00S 46°28' E 179°40'2 0.8 1003.1 10.1
2017-Oct-10 07:00S 46°27' E 179°43'0 0.0 1007.5 10.1
2017-Oct-10 06:00S 46°27' E 179°43'1 1.3 1008.6 10.1
2017-Oct-10 05:00S 46°26' E 179°44'1 0.6 1009.5 10.1
2017-Oct-10 04:00S 46°26' E 179°44'1 1.2 1010.2 10.1
2017-Oct-10 03:00S 46°25' E 179°44'0 0.0 1011.1 10.1
2017-Oct-10 02:00S 46°25' E 179°44'3 0.8 1012.3 10.1
2017-Oct-09 22:00S 46°22' E 179°44'1 0.8 1015.6 10.1
2017-Oct-09 21:00S 46°22' E 179°46'1 0.6 1016.4 10.2
2017-Oct-09 19:00S 46°21' E 179°46'1 0.6 1017.3 10.2
2017-Oct-09 18:00S 46°20' E 179°46'1 0.6 1017.9 10.2
2017-Oct-09 17:00S 46°20' E 179°46'1 1.0 1018.2 10.2
2017-Oct-09 16:00S 46°19' E 179°47'1 1.2 1018.7 10.2
2017-Oct-09 15:00S 46°18' E 179°47'1 1.5 1019.2 10.2
2017-Oct-09 14:00S 46°17' E 179°48'0 0.1 1019.8 10.2
2017-Oct-09 11:00S 46°17' E 179°49'   1021.4 10.2

Dump ship's entire track history